createdAt,value
2024-02-09T00:00:14.490Z,68.72
2024-02-09T00:01:14.605Z,69.80
2024-02-09T00:02:14.556Z,70.07
2024-02-09T00:03:14.597Z,69.27
2024-02-09T00:04:14.647Z,69.18
2024-02-09T00:05:14.661Z,70.69
2024-02-09T00:06:14.724Z,70.19
2024-02-09T00:07:14.806Z,69.34
2024-02-09T00:08:14.945Z,70.54
2024-02-09T00:09:14.798Z,72.38
2024-02-09T00:10:14.841Z,68.98
2024-02-09T00:11:14.882Z,68.45
2024-02-09T00:12:14.905Z,69.96
2024-02-09T00:13:14.919Z,69.33
2024-02-09T00:14:14.946Z,69.69
2024-02-09T00:15:14.984Z,70.30
2024-02-09T00:16:15.059Z,69.58
2024-02-09T00:17:15.048Z,71.71
2024-02-09T00:18:15.110Z,71.21
2024-02-09T00:19:15.164Z,70.21
2024-02-09T00:20:15.206Z,71.07
2024-02-09T00:21:15.172Z,71.42
2024-02-09T00:22:15.243Z,71.54
2024-02-09T00:23:15.238Z,70.01
2024-02-09T00:24:15.282Z,69.43
2024-02-09T00:25:15.401Z,72.49
2024-02-09T00:26:15.355Z,71.20
2024-02-09T00:27:15.383Z,72.01
2024-02-09T00:28:15.468Z,70.35
2024-02-09T00:29:15.456Z,71.59
2024-02-09T00:30:15.500Z,71.49
2024-02-09T00:31:15.566Z,72.51
2024-02-09T00:32:15.661Z,71.37
2024-02-09T00:33:15.689Z,70.30
2024-02-09T00:34:15.769Z,71.58
2024-02-09T00:35:15.687Z,71.40
2024-02-09T00:36:15.687Z,70.88
2024-02-09T00:37:15.741Z,70.95
2024-02-09T00:38:15.745Z,69.96
2024-02-09T00:39:15.782Z,70.91
2024-02-09T00:40:15.835Z,72.07
2024-02-09T00:41:15.845Z,72.69
2024-02-09T00:42:15.873Z,70.82
2024-02-09T00:43:15.965Z,70.76
2024-02-09T00:44:15.931Z,71.83
2024-02-09T00:45:15.967Z,71.28
2024-02-09T00:46:16.024Z,71.54
2024-02-09T00:47:16.033Z,70.98
2024-02-09T00:48:16.117Z,71.36
2024-02-09T00:49:16.159Z,69.48
2024-02-09T00:50:16.171Z,71.33
2024-02-09T00:51:16.169Z,69.87
2024-02-09T00:52:16.683Z,69.67
2024-02-09T00:53:16.250Z,72.06
2024-02-09T00:54:16.270Z,71.96
2024-02-09T00:55:16.383Z,70.00
2024-02-09T00:56:16.332Z,70.79
2024-02-09T00:57:16.382Z,70.39
2024-02-09T00:58:16.420Z,70.50
2024-02-09T00:59:16.434Z,72.10
2024-02-09T01:00:16.498Z,72.49
2024-02-09T01:01:16.635Z,72.18
2024-02-09T01:02:16.790Z,72.71
2024-02-09T01:03:16.564Z,72.10
2024-02-09T01:04:16.686Z,74.21
2024-02-09T01:05:16.957Z,71.71
2024-02-09T01:06:16.741Z,72.07
2024-02-09T01:07:16.744Z,70.92
2024-02-09T01:08:16.728Z,72.01
2024-02-09T01:09:16.764Z,74.20
2024-02-09T01:10:16.832Z,71.26
2024-02-09T01:11:16.839Z,74.21
2024-02-09T01:12:16.865Z,73.00
2024-02-09T01:13:16.943Z,72.05
2024-02-09T01:14:16.943Z,70.84
2024-02-09T01:15:16.982Z,72.63
2024-02-09T01:16:17.059Z,71.88
2024-02-09T01:17:17.044Z,72.11
2024-02-09T01:18:17.098Z,71.89
2024-02-09T01:19:17.259Z,72.18
2024-02-09T01:20:17.209Z,73.21
2024-02-09T01:21:17.227Z,72.45
2024-02-09T01:22:17.288Z,71.45
2024-02-09T01:23:17.289Z,72.62
2024-02-09T01:24:17.328Z,71.50
2024-02-09T01:25:17.999Z,71.98
2024-02-09T01:26:17.418Z,71.30
2024-02-09T01:27:17.454Z,71.36
2024-02-09T01:28:17.498Z,71.99
2024-02-09T01:29:17.529Z,72.78
2024-02-09T01:30:17.582Z,72.56
2024-02-09T01:31:17.654Z,74.08
2024-02-09T01:32:17.658Z,74.81
2024-02-09T01:33:17.734Z,74.93
2024-02-09T01:34:17.856Z,73.45
2024-02-09T01:35:17.799Z,76.35
2024-02-09T01:36:17.839Z,75.33
2024-02-09T01:37:17.870Z,76.60
2024-02-09T01:38:17.881Z,76.39
2024-02-09T01:39:17.936Z,74.79
2024-02-09T01:40:17.970Z,73.99
2024-02-09T01:41:18.010Z,71.46
2024-02-09T01:42:18.041Z,74.93
2024-02-09T01:43:18.121Z,74.00
2024-02-09T01:44:18.119Z,74.26
2024-02-09T01:45:18.235Z,74.29
2024-02-09T01:46:18.221Z,73.64
2024-02-09T01:47:18.223Z,73.87
2024-02-09T01:48:18.337Z,74.62
2024-02-09T01:49:18.397Z,75.20
2024-02-09T01:50:18.331Z,74.39
2024-02-09T01:51:18.384Z,76.26
2024-02-09T01:52:18.506Z,73.77
2024-02-09T01:53:18.584Z,76.61
2024-02-09T01:54:18.508Z,75.62
2024-02-09T01:55:18.517Z,75.92
2024-02-09T01:56:18.516Z,77.09
2024-02-09T01:57:18.552Z,76.16
2024-02-09T01:58:18.605Z,77.03
2024-02-09T01:59:18.561Z,76.40
2024-02-09T02:00:18.591Z,77.01
2024-02-09T02:01:19.313Z,76.79
2024-02-09T02:02:18.734Z,75.76
2024-02-09T02:03:18.715Z,76.33
2024-02-09T02:04:18.709Z,75.85
2024-02-09T02:05:18.667Z,76.13
2024-02-09T02:06:18.649Z,76.74
2024-02-09T02:07:18.707Z,76.73
2024-02-09T02:08:18.677Z,77.05
2024-02-09T02:09:18.685Z,77.85
2024-02-09T02:10:18.720Z,77.49
2024-02-09T02:11:18.709Z,76.46
2024-02-09T02:12:18.723Z,74.45
2024-02-09T02:13:18.739Z,77.33
2024-02-09T02:14:18.732Z,75.38
2024-02-09T02:15:18.734Z,75.91
2024-02-09T02:16:18.796Z,74.93
2024-02-09T02:17:18.770Z,75.89
2024-02-09T02:18:18.869Z,75.19
2024-02-09T02:19:19.033Z,76.43
2024-02-09T02:20:18.990Z,75.64
2024-02-09T02:21:18.890Z,76.22
2024-02-09T02:22:18.965Z,76.47
2024-02-09T02:23:18.972Z,76.18
2024-02-09T02:24:18.998Z,78.09
2024-02-09T02:25:19.109Z,76.55
2024-02-09T02:26:19.064Z,76.24
2024-02-09T02:27:19.088Z,78.23
2024-02-09T02:28:19.144Z,76.85
2024-02-09T02:29:19.162Z,77.52
2024-02-09T02:30:19.209Z,77.38
2024-02-09T02:31:19.266Z,77.27
2024-02-09T02:32:19.279Z,76.23
2024-02-09T02:33:19.458Z,77.42
2024-02-09T02:34:19.416Z,76.71
2024-02-09T02:35:19.405Z,77.02
2024-02-09T02:36:19.449Z,78.39
2024-02-09T02:37:19.487Z,76.18
2024-02-09T02:38:19.510Z,76.90
2024-02-09T02:39:19.578Z,76.64
2024-02-09T02:40:19.702Z,77.45
2024-02-09T02:41:19.639Z,79.50
2024-02-09T02:42:19.668Z,79.03
2024-02-09T02:43:19.780Z,79.64
2024-02-09T02:44:19.757Z,79.70
2024-02-09T02:45:19.792Z,79.63
2024-02-09T02:46:19.848Z,79.99
2024-02-09T02:47:19.886Z,80.12
2024-02-09T02:48:21.619Z,77.50
2024-02-09T02:49:20.107Z,80.01
2024-02-09T02:50:19.977Z,80.24
2024-02-09T02:51:19.925Z,80.08
2024-02-09T02:52:20.046Z,79.53
2024-02-09T02:53:19.936Z,80.22
2024-02-09T02:54:19.928Z,79.25
2024-02-09T02:55:19.949Z,78.80
2024-02-09T02:56:19.943Z,77.79
2024-02-09T02:57:19.967Z,76.95
2024-02-09T02:58:19.985Z,80.12
2024-02-09T02:59:19.939Z,78.96
2024-02-09T03:00:19.960Z,77.72
2024-02-09T03:01:20.016Z,78.29
2024-02-09T03:02:19.932Z,77.91
2024-02-09T03:03:19.961Z,77.16
2024-02-09T03:04:19.962Z,80.78
2024-02-09T03:05:20.188Z,79.55
2024-02-09T03:06:19.997Z,77.85
2024-02-09T03:09:20.070Z,78.58
2024-02-09T03:10:19.959Z,79.03
2024-02-09T03:11:19.956Z,79.09
2024-02-09T03:12:19.971Z,77.54
2024-02-09T03:13:20.019Z,78.70
2024-02-09T03:14:19.946Z,79.65
2024-02-09T03:15:19.955Z,80.16
2024-02-09T03:16:19.990Z,79.05
2024-02-09T03:17:19.981Z,79.54
2024-02-09T03:18:20.010Z,76.46
2024-02-09T03:19:20.057Z,80.69
2024-02-09T03:20:19.963Z,78.97
2024-02-09T03:21:19.983Z,76.49
2024-02-09T03:22:20.042Z,78.49
2024-02-09T03:23:19.981Z,78.66
2024-02-09T03:24:19.994Z,77.62
2024-02-09T03:25:20.034Z,77.53
2024-02-09T03:26:19.994Z,79.15
2024-02-09T03:27:19.994Z,79.23
2024-02-09T03:28:20.366Z,79.23
2024-02-09T03:29:19.991Z,79.47
2024-02-09T03:30:19.998Z,79.95
2024-02-09T03:31:20.044Z,79.76
2024-02-09T03:32:19.986Z,79.57
2024-02-09T03:33:20.130Z,80.12
2024-02-09T03:34:20.377Z,78.17
2024-02-09T03:35:20.091Z,79.19
2024-02-09T03:36:20.012Z,78.74
2024-02-09T03:37:20.091Z,80.21
2024-02-09T03:38:20.001Z,80.19
2024-02-09T03:39:20.007Z,78.78
2024-02-09T03:40:20.098Z,80.39
2024-02-09T03:41:20.027Z,79.34
2024-02-09T03:42:20.026Z,81.26
2024-02-09T03:43:20.042Z,78.32
2024-02-09T03:44:20.012Z,78.67
2024-02-09T03:45:20.012Z,80.50
2024-02-09T03:46:20.050Z,77.98
2024-02-09T03:47:20.031Z,79.57
2024-02-09T03:48:20.127Z,79.48
2024-02-09T03:49:20.171Z,80.16
2024-02-09T03:50:20.062Z,79.43
2024-02-09T03:51:20.046Z,80.71
2024-02-09T03:52:20.188Z,80.95
2024-02-09T03:53:20.034Z,80.72
2024-02-09T03:54:20.052Z,81.49
2024-02-09T03:55:20.095Z,79.90
2024-02-09T03:56:20.064Z,80.30
2024-02-09T03:57:20.048Z,79.29
2024-02-09T03:58:20.141Z,80.51
2024-02-09T03:59:20.051Z,80.90
2024-02-09T04:00:20.143Z,80.63
2024-02-09T04:01:20.126Z,80.77
2024-02-09T04:02:20.087Z,79.56
2024-02-09T04:03:20.134Z,81.68
2024-02-09T04:04:20.224Z,81.02
2024-02-09T04:05:20.299Z,81.38
2024-02-09T04:06:20.089Z,77.97
2024-02-09T04:07:20.105Z,79.60
2024-02-09T04:08:20.061Z,80.12
2024-02-09T04:11:20.145Z,82.46
2024-02-09T04:12:20.080Z,82.49
2024-02-09T04:13:20.127Z,82.67
2024-02-09T04:14:20.101Z,83.44
2024-02-09T04:15:20.072Z,81.21
2024-02-09T04:16:20.201Z,81.08
2024-02-09T04:17:20.072Z,83.92
2024-02-09T04:18:20.117Z,82.51
2024-02-09T04:19:20.112Z,83.06
2024-02-09T04:20:20.087Z,83.39
2024-02-09T04:21:20.078Z,82.31
2024-02-09T04:22:20.291Z,79.93
2024-02-09T04:23:20.081Z,82.58
2024-02-09T04:24:20.078Z,81.54
2024-02-09T04:25:27.313Z,50.00
2024-02-09T04:26:27.264Z,50.00
2024-02-09T04:27:27.263Z,50.00
2024-02-09T04:28:27.355Z,50.00
2024-02-09T04:29:27.285Z,50.00
2024-02-09T04:30:27.272Z,50.77
2024-02-09T04:31:34.469Z,50.00
2024-02-09T04:32:34.470Z,50.00
2024-02-09T04:33:34.464Z,50.00
2024-02-09T04:34:34.524Z,50.00
2024-02-09T04:35:34.445Z,50.00
2024-02-09T04:36:34.453Z,50.32
2024-02-09T04:37:34.517Z,50.55
2024-02-09T04:38:34.460Z,51.31
2024-02-09T04:39:34.461Z,50.31
2024-02-09T04:40:34.458Z,51.13
2024-02-09T04:41:34.456Z,51.22
2024-02-09T04:42:34.473Z,51.08
2024-02-09T04:43:34.489Z,50.97
2024-02-09T04:44:34.662Z,51.12
2024-02-09T04:45:34.476Z,50.00
2024-02-09T04:46:34.494Z,51.52
2024-02-09T04:47:34.544Z,50.80
2024-02-09T04:48:34.542Z,51.74
2024-02-09T04:49:34.609Z,50.28
2024-02-09T04:50:34.468Z,52.47
2024-02-09T04:51:34.462Z,50.96
2024-02-09T04:52:34.482Z,53.56
2024-02-09T04:53:34.466Z,53.09
2024-02-09T04:54:34.469Z,51.40
2024-02-09T04:55:34.566Z,53.06
2024-02-09T04:56:34.475Z,52.26
2024-02-09T04:57:34.476Z,51.89
2024-02-09T04:58:34.543Z,54.07
2024-02-09T04:59:34.494Z,52.27
2024-02-09T05:00:34.511Z,51.99
2024-02-09T05:01:34.547Z,52.20
2024-02-09T05:02:34.488Z,50.56
2024-02-09T05:03:34.488Z,52.44
2024-02-09T05:04:34.601Z,53.49
2024-02-09T05:05:35.056Z,52.75
2024-02-09T05:06:34.629Z,52.79
2024-02-09T05:07:34.672Z,52.83
2024-02-09T05:08:34.712Z,54.84
2024-02-09T05:09:34.752Z,55.92
2024-02-09T05:10:34.766Z,53.92
2024-02-09T05:11:34.808Z,54.84
2024-02-09T05:12:34.838Z,55.59
2024-02-09T05:13:34.921Z,55.52
2024-02-09T05:14:34.912Z,55.37
2024-02-09T05:15:35.057Z,55.36
2024-02-09T05:16:35.096Z,55.46
2024-02-09T05:17:35.107Z,55.74
2024-02-09T05:18:35.169Z,58.02
2024-02-09T05:19:35.138Z,57.11
2024-02-09T05:20:35.202Z,55.53
2024-02-09T05:21:35.244Z,56.31
2024-02-09T05:22:35.332Z,55.08
2024-02-09T05:23:35.324Z,57.90
2024-02-09T05:24:35.362Z,56.30
2024-02-09T05:25:35.435Z,56.55
2024-02-09T05:26:35.439Z,55.46
2024-02-09T05:27:35.426Z,56.25
2024-02-09T05:28:35.465Z,55.70
2024-02-09T05:29:35.463Z,55.87
2024-02-09T05:30:35.479Z,56.59
2024-02-09T05:31:35.552Z,56.70
2024-02-09T05:32:35.574Z,55.79
2024-02-09T05:33:35.551Z,53.40
2024-02-09T05:34:35.651Z,53.98
2024-02-09T05:35:35.665Z,56.05
2024-02-09T05:36:35.719Z,54.12
2024-02-09T05:37:35.817Z,55.28
2024-02-09T05:38:35.800Z,55.09
2024-02-09T05:39:35.837Z,57.09
2024-02-09T05:40:35.916Z,57.27
2024-02-09T05:41:35.931Z,57.24
2024-02-09T05:42:35.990Z,56.30
2024-02-09T05:43:36.111Z,58.94
2024-02-09T05:44:36.084Z,57.93
2024-02-09T05:45:36.125Z,57.59
2024-02-09T05:46:36.229Z,59.84
2024-02-09T05:47:36.271Z,58.93
2024-02-09T05:48:36.342Z,61.05
2024-02-09T05:49:36.408Z,60.31
2024-02-09T05:50:40.561Z,59.42
2024-02-09T05:51:37.368Z,59.54
2024-02-09T05:52:36.438Z,59.69
2024-02-09T05:53:36.375Z,60.11
2024-02-09T05:54:36.373Z,59.92
2024-02-09T05:55:36.403Z,62.57
2024-02-09T05:56:36.397Z,60.38
2024-02-09T05:57:36.373Z,59.08
2024-02-09T05:58:36.518Z,59.21
2024-02-09T05:59:36.375Z,60.92
2024-02-09T06:00:36.397Z,60.28
2024-02-09T06:01:36.392Z,59.84
2024-02-09T06:02:36.377Z,60.21
2024-02-09T06:03:36.451Z,59.99
2024-02-09T06:04:36.516Z,59.24
2024-02-09T06:05:36.547Z,61.15
2024-02-09T06:06:36.550Z,59.58
2024-02-09T06:07:36.594Z,59.30
2024-02-09T06:08:36.638Z,61.22
2024-02-09T06:09:36.641Z,60.26
2024-02-09T06:10:36.713Z,61.46
2024-02-09T06:11:36.756Z,58.74
2024-02-09T06:12:39.165Z,60.00
2024-02-09T06:13:37.005Z,60.81
2024-02-09T06:14:36.987Z,60.15
2024-02-09T06:15:37.018Z,61.65
2024-02-09T06:16:37.129Z,59.91
2024-02-09T06:17:37.165Z,61.99
2024-02-09T06:18:37.240Z,61.65
2024-02-09T06:19:37.382Z,60.49
2024-02-09T06:20:37.236Z,61.34
2024-02-09T06:21:37.307Z,60.72
2024-02-09T06:22:37.374Z,60.47
2024-02-09T06:23:37.390Z,60.42
2024-02-09T06:24:37.432Z,61.12
2024-02-09T06:25:37.509Z,60.39
2024-02-09T06:26:37.670Z,62.63
2024-02-09T06:27:37.571Z,62.28
2024-02-09T06:28:38.627Z,59.30
2024-02-09T06:29:37.656Z,57.92
2024-02-09T06:30:37.701Z,59.38
2024-02-09T06:31:38.150Z,56.59
2024-02-09T06:32:37.886Z,55.40
2024-02-09T06:33:37.973Z,67.04
2024-02-09T06:34:37.997Z,101.60
2024-02-09T06:35:37.935Z,125.14
2024-02-09T06:36:37.997Z,133.40
2024-02-09T06:37:38.147Z,137.82
2024-02-09T06:38:38.124Z,140.80
2024-02-09T06:39:38.177Z,143.00
2024-02-09T06:40:38.272Z,140.69
2024-02-09T06:41:38.603Z,140.81
2024-02-09T06:42:38.317Z,142.66
2024-02-09T06:43:38.393Z,160.09
2024-02-09T06:44:39.097Z,173.94
2024-02-09T06:45:38.460Z,182.82
2024-02-09T06:46:38.552Z,183.80
2024-02-09T06:47:38.557Z,184.20
2024-02-09T06:48:38.604Z,180.54
2024-02-09T06:49:38.644Z,176.64
2024-02-09T06:50:38.616Z,172.71
2024-02-09T06:51:38.669Z,166.45
2024-02-09T06:52:38.854Z,157.72
2024-02-09T06:53:38.715Z,153.28
2024-02-09T06:54:38.780Z,145.84
2024-02-09T06:55:38.795Z,141.29
2024-02-09T06:56:38.816Z,136.43
2024-02-09T06:57:38.843Z,134.26
2024-02-09T06:58:38.952Z,130.91
2024-02-09T06:59:38.903Z,126.73
2024-02-09T07:00:38.963Z,126.38
2024-02-09T07:01:39.143Z,125.73
2024-02-09T07:02:39.057Z,120.84
2024-02-09T07:03:39.081Z,117.26
2024-02-09T07:04:39.315Z,113.88
2024-02-09T07:05:39.144Z,109.06
2024-02-09T07:06:39.142Z,107.15
2024-02-09T07:07:39.276Z,104.77
2024-02-09T07:08:39.194Z,100.90
2024-02-09T07:09:39.233Z,97.58
2024-02-09T07:10:39.335Z,97.87
2024-02-09T07:11:39.316Z,97.82
2024-02-09T07:12:39.335Z,95.62
2024-02-09T07:13:39.413Z,94.26
2024-02-09T07:14:39.407Z,95.47
2024-02-09T07:15:39.419Z,94.37
2024-02-09T07:16:39.482Z,94.71
2024-02-09T07:17:41.020Z,95.67
2024-02-09T07:18:39.775Z,98.36
2024-02-09T07:19:39.858Z,95.17
2024-02-09T07:20:39.866Z,95.69
2024-02-09T07:21:39.840Z,92.42
2024-02-09T07:22:39.901Z,92.37
2024-02-09T07:23:39.847Z,93.10
2024-02-09T07:24:39.880Z,92.57
2024-02-09T07:25:39.928Z,91.55
2024-02-09T07:26:39.951Z,89.24
2024-02-09T07:27:39.956Z,89.10
2024-02-09T07:28:40.080Z,90.43
2024-02-09T07:29:40.017Z,87.74
2024-02-09T07:30:40.055Z,87.26
2024-02-09T07:31:40.186Z,84.62
2024-02-09T07:32:40.158Z,83.87
2024-02-09T07:33:40.234Z,81.43
2024-02-09T07:34:40.295Z,81.60
2024-02-09T07:35:40.212Z,84.21
2024-02-09T07:36:40.633Z,83.64
2024-02-09T07:37:40.356Z,87.79
2024-02-09T07:38:40.293Z,91.80
2024-02-09T07:39:40.285Z,95.39
2024-02-09T07:40:40.403Z,98.66
2024-02-09T07:41:40.348Z,98.78
2024-02-09T07:42:40.331Z,102.40
2024-02-09T07:43:40.452Z,102.96
2024-02-09T07:44:40.368Z,105.66
2024-02-09T07:45:40.383Z,113.00
2024-02-09T07:46:40.689Z,111.76
2024-02-09T07:47:40.599Z,113.27
2024-02-09T07:48:40.626Z,116.63
2024-02-09T07:49:40.685Z,120.67
2024-02-09T07:50:40.684Z,124.18
2024-02-09T07:51:40.722Z,125.06
2024-02-09T07:52:40.820Z,123.66
2024-02-09T07:53:40.787Z,125.40
2024-02-09T07:54:40.790Z,124.09
2024-02-09T07:55:40.899Z,122.23
2024-02-09T07:56:40.865Z,117.91
2024-02-09T07:57:40.908Z,114.82
2024-02-09T07:58:41.044Z,109.49
2024-02-09T07:59:40.994Z,110.89
2024-02-09T08:00:41.070Z,108.89
2024-02-09T08:01:41.209Z,105.79
2024-02-09T08:02:41.166Z,104.66
2024-02-09T08:03:41.218Z,101.07
2024-02-09T08:04:41.335Z,97.35
2024-02-09T08:05:41.237Z,94.81
2024-02-09T08:06:41.343Z,96.09
2024-02-09T08:07:41.312Z,95.95
2024-02-09T08:08:41.272Z,92.00
2024-02-09T08:09:41.329Z,91.33
2024-02-09T08:10:41.434Z,93.09
2024-02-09T08:11:41.384Z,92.53
2024-02-09T08:12:41.389Z,93.59
2024-02-09T08:13:41.463Z,87.24
2024-02-09T08:14:41.449Z,89.22
2024-02-09T08:15:41.505Z,84.61
2024-02-09T08:16:41.656Z,82.53
2024-02-09T08:17:41.738Z,79.69
2024-02-09T08:18:41.724Z,78.19
2024-02-09T08:19:41.852Z,78.99
2024-02-09T08:20:41.813Z,73.88
2024-02-09T08:21:41.885Z,74.20
2024-02-09T08:22:42.037Z,73.48
2024-02-09T08:23:42.031Z,73.00
2024-02-09T08:24:42.050Z,69.25
2024-02-09T08:25:42.120Z,68.03
2024-02-09T08:26:49.518Z,69.60
2024-02-09T08:27:43.095Z,69.75
2024-02-09T08:28:42.250Z,77.95
2024-02-09T08:29:42.892Z,122.68
2024-02-09T08:30:42.117Z,185.11
2024-02-09T08:31:42.155Z,247.88
2024-02-09T08:32:42.123Z,198.75
2024-02-09T08:33:42.155Z,200.00
2024-02-09T08:34:42.301Z,200.00
2024-02-09T08:35:42.134Z,200.00
2024-02-09T08:36:42.118Z,199.50
2024-02-09T08:37:42.202Z,199.82
2024-02-09T08:38:42.113Z,199.43
2024-02-09T08:39:42.181Z,202.54
2024-02-09T08:40:42.338Z,200.00
2024-02-09T08:41:42.649Z,200.00
2024-02-09T08:42:43.448Z,198.65
2024-02-09T08:43:42.472Z,197.31
2024-02-09T08:44:42.409Z,196.55
2024-02-09T08:45:42.429Z,200.00
2024-02-09T08:46:42.485Z,199.23
2024-02-09T08:47:42.483Z,198.15
2024-02-09T08:48:42.523Z,198.01
2024-02-09T08:49:42.552Z,197.11
2024-02-09T08:50:42.528Z,196.18
2024-02-09T08:51:42.670Z,195.68
2024-02-09T08:52:42.636Z,193.64
2024-02-09T08:53:42.511Z,192.32
2024-02-09T08:54:42.516Z,191.40
2024-02-09T08:55:42.531Z,189.19
2024-02-09T08:56:42.530Z,186.34
2024-02-09T08:57:42.559Z,185.95
2024-02-09T08:58:42.775Z,182.70
2024-02-09T08:59:42.686Z,179.39
2024-02-09T09:00:53.202Z,179.68
2024-02-09T09:01:44.269Z,179.00
2024-02-09T09:02:42.809Z,178.23
2024-02-09T09:03:42.806Z,173.50
2024-02-09T09:04:42.852Z,168.76
2024-02-09T09:05:44.102Z,162.57
2024-02-09T09:06:42.949Z,157.18
2024-02-09T09:07:42.965Z,153.55
2024-02-09T09:08:43.023Z,151.16
2024-02-09T09:09:43.078Z,148.45
2024-02-09T09:10:43.167Z,147.46
2024-02-09T09:11:43.175Z,143.01
2024-02-09T09:12:43.673Z,139.62
2024-02-09T09:13:43.270Z,139.80
2024-02-09T09:14:43.257Z,135.88
2024-02-09T09:15:43.296Z,131.02
2024-02-09T09:16:43.303Z,127.05
2024-02-09T09:17:43.407Z,122.68
2024-02-09T09:18:43.388Z,118.73
2024-02-09T09:19:43.543Z,117.41
2024-02-09T09:20:43.474Z,115.54
2024-02-09T09:21:43.691Z,111.55
2024-02-09T09:22:43.761Z,109.54
2024-02-09T09:23:43.604Z,106.08
2024-02-09T09:24:43.632Z,110.47
2024-02-09T09:25:43.666Z,114.80
2024-02-09T09:26:43.655Z,118.29
2024-02-09T09:27:43.682Z,118.55
2024-02-09T09:28:43.800Z,119.13
2024-02-09T09:29:43.789Z,117.25
2024-02-09T09:30:43.880Z,117.50
2024-02-09T09:31:44.223Z,116.53
2024-02-09T09:32:44.010Z,114.26
2024-02-09T09:33:44.147Z,111.95
2024-02-09T09:34:44.229Z,108.62
2024-02-09T09:35:44.303Z,107.25
2024-02-09T09:36:44.672Z,104.04
2024-02-09T09:37:44.330Z,100.84
2024-02-09T09:38:44.308Z,97.03
2024-02-09T09:39:44.368Z,96.51
2024-02-09T09:40:44.421Z,94.84
2024-02-09T09:41:44.736Z,94.17
2024-02-09T09:42:44.422Z,94.64
2024-02-09T09:43:44.566Z,92.32
2024-02-09T09:44:44.489Z,89.58
2024-02-09T09:45:44.511Z,89.55
2024-02-09T09:46:44.598Z,88.94
2024-02-09T09:47:44.609Z,88.21
2024-02-09T09:48:44.568Z,87.72
2024-02-09T09:49:44.848Z,89.07
2024-02-09T09:50:44.574Z,88.97
2024-02-09T09:51:44.601Z,89.69
2024-02-09T09:52:44.807Z,89.44
2024-02-09T09:53:44.617Z,89.53
2024-02-09T09:54:44.638Z,89.83
2024-02-09T09:55:44.687Z,89.32
2024-02-09T09:56:44.666Z,89.12
2024-02-09T09:57:44.691Z,89.93
2024-02-09T09:58:44.883Z,90.12
2024-02-09T09:59:44.730Z,88.59
2024-02-09T10:00:44.823Z,85.66
2024-02-09T10:01:44.916Z,85.67
2024-02-09T10:02:44.845Z,82.13
2024-02-09T10:03:44.999Z,79.46
2024-02-09T10:04:45.097Z,75.31
2024-02-09T10:05:45.207Z,72.39
2024-02-09T10:06:45.078Z,70.75
2024-02-09T10:07:45.146Z,70.28
2024-02-09T10:08:45.029Z,68.19
2024-02-09T10:09:45.046Z,67.94
2024-02-09T10:10:45.134Z,68.70
2024-02-09T10:11:45.172Z,68.01
2024-02-09T10:12:45.246Z,70.25
2024-02-09T10:13:45.378Z,70.54
2024-02-09T10:14:45.380Z,71.31
2024-02-09T10:15:45.441Z,70.96
2024-02-09T10:16:45.942Z,71.12
2024-02-09T10:17:45.633Z,71.16
2024-02-09T10:18:46.461Z,72.62
2024-02-09T10:19:45.692Z,101.72
2024-02-09T10:20:45.770Z,110.92
2024-02-09T10:21:53.694Z,109.31
2024-02-09T10:22:46.816Z,107.53
2024-02-09T10:23:45.819Z,105.12
2024-02-09T10:24:45.850Z,95.60
2024-02-09T10:25:45.962Z,93.54
2024-02-09T10:26:46.212Z,90.59
2024-02-09T10:27:46.034Z,87.67
2024-02-09T10:28:46.142Z,86.83
2024-02-09T10:29:46.164Z,83.14
2024-02-09T10:30:46.272Z,78.99
2024-02-09T10:31:46.348Z,76.32
2024-02-09T10:32:46.402Z,74.00
2024-02-09T10:33:46.438Z,71.65
2024-02-09T10:34:46.708Z,69.98
2024-02-09T10:35:46.682Z,70.74
2024-02-09T10:36:46.777Z,68.30
2024-02-09T10:37:46.763Z,67.44
2024-02-09T10:38:46.786Z,66.02
2024-02-09T10:39:46.862Z,63.92
2024-02-09T10:40:46.934Z,64.62
2024-02-09T10:41:47.008Z,63.64
2024-02-09T10:42:47.079Z,63.05
2024-02-09T10:43:47.203Z,64.21
2024-02-09T10:44:47.208Z,65.18
2024-02-09T10:45:47.301Z,61.72
2024-02-09T10:46:47.394Z,63.35
2024-02-09T10:47:47.456Z,62.78
2024-02-09T10:48:47.568Z,61.19
2024-02-09T10:49:47.591Z,60.55
2024-02-09T10:50:47.629Z,61.07
2024-02-09T10:51:47.712Z,61.84
2024-02-09T10:52:47.862Z,62.79
2024-02-09T10:53:47.856Z,61.57
2024-02-09T10:54:47.924Z,61.05
2024-02-09T10:55:48.085Z,61.95
2024-02-09T10:56:48.135Z,61.65
2024-02-09T10:57:48.126Z,61.48
2024-02-09T10:58:48.290Z,61.74
2024-02-09T10:59:48.275Z,61.77
2024-02-09T11:00:48.354Z,59.96
2024-02-09T11:01:48.429Z,60.80
2024-02-09T11:02:48.474Z,61.57
2024-02-09T11:03:48.561Z,61.38
2024-02-09T11:04:48.823Z,62.00
2024-02-09T11:05:48.812Z,61.16
2024-02-09T11:06:48.769Z,61.48
2024-02-09T11:07:48.904Z,62.93
2024-02-09T11:08:48.844Z,62.56
2024-02-09T11:09:48.896Z,62.80
2024-02-09T11:10:48.988Z,61.87
2024-02-09T11:11:49.108Z,61.83
2024-02-09T11:12:49.077Z,62.53
2024-02-09T11:13:49.159Z,63.60
2024-02-09T11:14:49.202Z,62.22
2024-02-09T11:15:49.317Z,63.95
2024-02-09T11:16:49.424Z,62.25
2024-02-09T11:17:49.430Z,63.72
2024-02-09T11:18:49.494Z,63.86
2024-02-09T11:19:49.631Z,65.90
2024-02-09T11:20:49.558Z,58.02
2024-02-09T11:21:49.600Z,52.15
2024-02-09T11:22:49.689Z,50.00
2024-02-09T11:23:49.669Z,50.14
2024-02-09T11:24:49.686Z,50.60
2024-02-09T11:25:49.753Z,50.78
2024-02-09T11:26:49.791Z,50.65
2024-02-09T11:27:49.774Z,50.99
2024-02-09T11:28:49.861Z,55.51
2024-02-09T11:29:49.933Z,62.43
2024-02-09T11:30:49.869Z,66.75
2024-02-09T11:31:49.873Z,72.31
2024-02-09T11:32:49.932Z,76.50
2024-02-09T11:33:50.320Z,80.88
2024-02-09T11:34:50.409Z,84.44
2024-02-09T11:35:50.010Z,87.67
2024-02-09T11:36:50.069Z,90.20
2024-02-09T11:37:50.179Z,92.77
2024-02-09T11:38:50.203Z,94.50
2024-02-09T11:39:53.473Z,95.66
2024-02-09T11:40:50.313Z,96.76
2024-02-09T11:41:50.258Z,98.03
2024-02-09T11:42:50.258Z,98.26
2024-02-09T11:43:50.298Z,99.56
2024-02-09T11:44:50.286Z,98.98
2024-02-09T11:45:53.524Z,99.66
2024-02-09T11:46:50.310Z,99.72
2024-02-09T11:47:50.304Z,99.79
2024-02-09T11:48:50.353Z,99.33
2024-02-09T11:49:50.313Z,98.35
2024-02-09T11:50:50.292Z,99.45
2024-02-09T11:51:53.365Z,100.19
2024-02-09T11:53:01.304Z,100.28
2024-02-09T11:53:51.298Z,100.33
2024-02-09T11:54:50.272Z,100.81
2024-02-09T11:55:50.370Z,101.38
2024-02-09T11:56:50.281Z,102.01
2024-02-09T11:57:50.293Z,102.52
2024-02-09T11:58:50.489Z,102.95
2024-02-09T11:59:50.297Z,101.87
2024-02-09T12:00:50.316Z,100.36
2024-02-09T12:01:50.408Z,100.72
2024-02-09T12:02:50.309Z,99.23
2024-02-09T12:03:50.380Z,98.50
2024-02-09T12:04:50.366Z,96.46
2024-02-09T12:05:50.315Z,96.16
2024-02-09T12:06:50.363Z,95.27
2024-02-09T12:07:50.349Z,94.14
2024-02-09T12:08:50.347Z,92.42
2024-02-09T12:09:50.310Z,92.54
2024-02-09T12:10:50.478Z,91.94
2024-02-09T12:11:50.311Z,91.71
2024-02-09T12:12:50.346Z,92.27
2024-02-09T12:13:50.341Z,91.61
2024-02-09T12:14:50.313Z,90.86
2024-02-09T12:15:50.349Z,89.15
2024-02-09T12:16:50.371Z,87.73
2024-02-09T12:17:50.398Z,87.47
2024-02-09T12:18:50.445Z,84.94
2024-02-09T12:19:50.371Z,85.18
2024-02-09T12:20:50.341Z,84.85
2024-02-09T12:21:50.352Z,84.97
2024-02-09T12:22:50.386Z,84.54
2024-02-09T12:23:50.344Z,84.54
2024-02-09T12:24:50.345Z,83.88
2024-02-09T12:25:50.393Z,84.01
2024-02-09T12:26:50.385Z,83.17
2024-02-09T12:27:50.391Z,81.93
2024-02-09T12:28:50.456Z,82.20
2024-02-09T12:29:50.451Z,82.31
2024-02-09T12:30:50.459Z,82.13
2024-02-09T12:31:50.537Z,81.93
2024-02-09T12:32:50.516Z,81.38
2024-02-09T12:33:50.561Z,80.95
2024-02-09T12:34:50.503Z,80.25
2024-02-09T12:35:50.504Z,78.41
2024-02-09T12:36:50.507Z,77.19
2024-02-09T12:37:50.531Z,75.48
2024-02-09T12:38:50.507Z,75.75
2024-02-09T12:39:50.515Z,74.46
2024-02-09T12:40:50.634Z,75.22
2024-02-09T12:41:50.549Z,75.22
2024-02-09T12:42:50.557Z,74.71
2024-02-09T12:43:50.646Z,73.66
2024-02-09T12:44:50.637Z,71.90
2024-02-09T12:45:50.606Z,71.79
2024-02-09T12:46:50.702Z,71.22
2024-02-09T12:47:50.805Z,71.38
2024-02-09T12:48:50.705Z,71.77
2024-02-09T12:49:50.847Z,71.30
2024-02-09T12:50:50.713Z,71.49
2024-02-09T12:51:50.703Z,70.89
2024-02-09T12:52:50.768Z,70.06